Aérodrome :
LOGIN :

S'inscrire | Disclaimer

   EN    FR    IT 

 










Légende :    VFR   VFR Marginal   IFR   IFR Intensif   IFR Très Intensif
Visi : 
Plafond : 
>= 8 km
>= 3000ft
5 à 8 km
1000 à 3000 ft
1500m à 5 km
500 à 1000 ft
800 à 1500m
200 à 500 ft
< 800m
< 200 ft
Symboles :   Orages  Brouillard  Fortes neiges  Fortes précipitations  Vent > 20 kt
SIGMETs :   Divers  Orages  Givrage  Turbulence  Onde Orograph.  Cendres Volcan.






- Altitude de l'aérodrome : 755 ft
- Code IATA : KSC


LZKZ - Kosice

DERNIER METAR :
  • 241000Z 02011KT 9999 SCT020 SCT040 10/05 Q1002 NOSIG

METARs EXPIRÉS :
  • 240930Z 01013KT 9999 FEW020 10/05 Q1002 NOSIG
  • 240900Z 01011KT 9999 SCT025 SCT040 10/05 Q1002 NOSIG
  • 240830Z 01012KT 9999 FEW015 BKN024 09/06 Q1002 NOSIG
  • 240800Z 01012KT 9999 FEW015 BKN024 09/06 Q1002 NOSIG
  • 240730Z 02008KT 9999 FEW015 BKN024 09/06 Q1002 NOSIG
  • 240700Z 01007KT 9999 FEW015 BKN024 08/06 Q1002 NOSIG
  • 240630Z 01006KT 9999 -RA FEW015 OVC024 08/06 Q1002 NOSIG
  • 240600Z 03006KT 7000 -RA SCT015 OVC025 07/06 Q1003 NOSIG
  • 240530Z 02008KT 9999 -RA FEW015 SCT025 OVC040 07/06 Q1003 NOSIG

TAF TAF LZKZ
Valide du 24 à 06h jusqu'au 25 à 06h UTC


240515Z 2406/2506 01009KT 9999 -RA FEW015 SCT025 BKN045
PROB40
TEMPO 2406/2412 2500 RA BR BKN005 OVC014
BECMG 2412/2414 21006KT



MET'MAP, la Météo Aéronautique d'un coup d'oeil ! - Copyright ORBIFLY Décembre 2007 - Disclaimer

ORBIFLY MET'MAP TEAM :

Programmation & Développement : Alexandra Zaïnal
Sur une idée originale de : Baudouin d'Aumeries
Soutien technique & logistique : Manuel Goepfert
Assistance : Marc-Olivier Méhu




SOURCES & CREDITS :

   NOAA